Margaret — WDC3267 — position and weather

sailwx.info

Track history (hours):
 
Tides and Currents Weather Stations Pressure Air Temp Water Temp Dewpoint Dewpoint Depression Visibility Wind Speed Wind Dir Waves Ship Positions

Margaret

Owner: Cooper Marine & Timberlands Corporation, Mobile, AL. More information available from US FCC via Universal Licensing System and Coast Guard Vessel Documentation Center.

Last reported at 2015-Mar-23 21:22 UTC. Time now 2015-Mar-26 22:30 UTC.
Position N 29°34' W 090°56'.

; draft 9 m.

Type: Towing. MMSI: 367004940.

Date/timePositionNaut miles runAvg speedWind from/ knotsBaromVisibWave heightAir tempDewpointWater temp
2015-Mar-23 21:22N 29°34' W 090°56'4 3.7
2015-Mar-23 20:15N 29°32' W 090°51'2 3.6
2015-Mar-23 19:33N 29°32' W 090°48'3 3.1
2015-Mar-23 18:33N 29°33' W 090°45'3 2.7
2015-Mar-23 17:33N 29°35' W 090°43'2 1.9
2015-Mar-23 16:33N 29°36' W 090°41'2 2.2
2015-Mar-23 15:33N 29°36' W 090°39'2 1.8
2015-Mar-23 14:33N 29°35' W 090°37'1 1.1
2015-Mar-23 13:33N 29°35' W 090°36'0 0.0
2015-Mar-23 12:33N 29°35' W 090°36'0 0.0
2015-Mar-23 11:33N 29°35' W 090°36'0 0.0
2015-Mar-23 10:33N 29°35' W 090°36'0 0.1
2015-Mar-23 09:33N 29°35' W 090°36'0 0.0
2015-Mar-23 08:31N 29°35' W 090°36'0 0.1
2015-Mar-23 07:31N 29°35' W 090°36'2 2.5
2015-Mar-23 06:33N 29°34' W 090°33'31 3.1
2015-Mar-22 20:31N 29°52' W 090°04'2 2.0
2015-Mar-22 19:18N 29°55' W 090°05'0 0.1
2015-Mar-22 17:24N 29°55' W 090°05'2 2.2
2015-Mar-22 16:29N 29°54' W 090°07'1 0.2
2015-Mar-22 13:09N 29°54' W 090°07'0 0.0
2015-Mar-22 12:27N 29°54' W 090°07'2 0.4
2015-Mar-22 06:31N 29°55' W 090°04'3 2.8
2015-Mar-22 05:32N 29°57' W 090°02'1 0.9
2015-Mar-22 04:32N 29°58' W 090°02'1 0.6
2015-Mar-22 03:33N 29°59' W 090°01'0 0.0
2015-Mar-22 02:33N 29°59' W 090°01'0 0.0
2015-Mar-22 01:32N 29°59' W 090°01'  
Track history (hours):
 
Tides and Currents Weather Stations Pressure Air Temp Water Temp Dewpoint Dewpoint Depression Visibility Wind Speed Wind Dir Waves Ship Positions

Margaret

Owner: Cooper Marine & Timberlands Corporation, Mobile, AL. More information available from US FCC via Universal Licensing System and Coast Guard Vessel Documentation Center.

Last reported at 2015-Mar-23 21:22 UTC. Time now 2015-Mar-26 22:30 UTC.
Position N 29°34' W 090°56'.

; draft 9 m.

Type: Towing. MMSI: 367004940.

Date/timePositionNaut miles runAvg speedWind from/ knotsBaromVisibWave heightAir tempDewpointWater temp
2015-Mar-23 21:22N 29°34' W 090°56'4 3.7
2015-Mar-23 20:15N 29°32' W 090°51'2 3.6
2015-Mar-23 19:33N 29°32' W 090°48'3 3.1
2015-Mar-23 18:33N 29°33' W 090°45'3 2.7
2015-Mar-23 17:33N 29°35' W 090°43'2 1.9
2015-Mar-23 16:33N 29°36' W 090°41'2 2.2
2015-Mar-23 15:33N 29°36' W 090°39'2 1.8
2015-Mar-23 14:33N 29°35' W 090°37'1 1.1
2015-Mar-23 13:33N 29°35' W 090°36'0 0.0
2015-Mar-23 12:33N 29°35' W 090°36'0 0.0
2015-Mar-23 11:33N 29°35' W 090°36'0 0.0
2015-Mar-23 10:33N 29°35' W 090°36'0 0.1
2015-Mar-23 09:33N 29°35' W 090°36'0 0.0
2015-Mar-23 08:31N 29°35' W 090°36'0 0.1
2015-Mar-23 07:31N 29°35' W 090°36'2 2.5
2015-Mar-23 06:33N 29°34' W 090°33'31 3.1
2015-Mar-22 20:31N 29°52' W 090°04'2 2.0
2015-Mar-22 19:18N 29°55' W 090°05'0 0.1
2015-Mar-22 17:24N 29°55' W 090°05'2 2.2
2015-Mar-22 16:29N 29°54' W 090°07'1 0.2
2015-Mar-22 13:09N 29°54' W 090°07'0 0.0
2015-Mar-22 12:27N 29°54' W 090°07'2 0.4
2015-Mar-22 06:31N 29°55' W 090°04'3 2.8
2015-Mar-22 05:32N 29°57' W 090°02'1 0.9
2015-Mar-22 04:32N 29°58' W 090°02'1 0.6
2015-Mar-22 03:33N 29°59' W 090°01'0 0.0
2015-Mar-22 02:33N 29°59' W 090°01'0 0.0
2015-Mar-22 01:32N 29°59' W 090°01'  

Dump ship's entire track history